Terminal Aerodrome Forecast
Issued by NWS

Home | Current Version | Previous Version | Text Only | Print | Product List | Glossary On
Versions: 1 2 3 4 5 6 7 8 9 10 11 12 13 14 15 16 17 18 19 20 21 22 23 24 25 26 27 28 29 30 31 32
000
FTUS43 KABR 231300 AAB
TAFMBG
TAF AMD
KMBG 231342Z 2314/2412 07014G24KT P6SM -RA OVC010
      TEMPO 2314/2318 5SM RA BR OVC008
     FM231800 07016KT 5SM SHRA BR OVC012
     FM240000 13016KT P6SM VCTS SCT010CB OVC025
     FM240700 29008KT P6SM OVC015=

USA.gov is the U.S. government's official web portal to all federal, state and local government web resources and services.